sensor_id;sensor_type;location;lat;lon;timestamp;temperature;humidity
19941;DHT22;10132;50.864;5.176;2022-10-19T00:00:21;10.20;99.90
19941;DHT22;10132;50.864;5.176;2022-10-19T00:02:23;10.30;99.90
19941;DHT22;10132;50.864;5.176;2022-10-19T00:04:25;10.40;99.90
19941;DHT22;10132;50.864;5.176;2022-10-19T00:06:31;10.40;99.90
19941;DHT22;10132;50.864;5.176;2022-10-19T00:08:35;10.30;99.90
19941;DHT22;10132;50.864;5.176;2022-10-19T00:10:39;10.40;99.90
19941;DHT22;10132;50.864;5.176;2022-10-19T00:12:41;10.40;99.90
19941;DHT22;10132;50.864;5.176;2022-10-19T00:14:43;10.40;99.90
19941;DHT22;10132;50.864;5.176;2022-10-19T00:16:47;10.40;99.90
19941;DHT22;10132;50.864;5.176;2022-10-19T00:18:49;10.50;99.90
19941;DHT22;10132;50.864;5.176;2022-10-19T00:20:51;10.40;99.90
19941;DHT22;10132;50.864;5.176;2022-10-19T00:22:53;10.40;99.90
19941;DHT22;10132;50.864;5.176;2022-10-19T00:24:57;10.30;99.90
19941;DHT22;10132;50.864;5.176;2022-10-19T00:26:59;10.30;99.90
19941;DHT22;10132;50.864;5.176;2022-10-19T00:29:02;10.20;99.90
19941;DHT22;10132;50.864;5.176;2022-10-19T00:31:06;10.20;99.90
19941;DHT22;10132;50.864;5.176;2022-10-19T00:33:09;10.30;99.90
19941;DHT22;10132;50.864;5.176;2022-10-19T00:35:12;10.30;99.90
19941;DHT22;10132;50.864;5.176;2022-10-19T00:37:14;10.40;99.90
19941;DHT22;10132;50.864;5.176;2022-10-19T00:39:17;10.40;99.90
19941;DHT22;10132;50.864;5.176;2022-10-19T00:41:23;10.50;99.90
19941;DHT22;10132;50.864;5.176;2022-10-19T00:43:27;10.60;99.90
19941;DHT22;10132;50.864;5.176;2022-10-19T00:45:31;10.50;99.90
19941;DHT22;10132;50.864;5.176;2022-10-19T00:47:33;10.50;99.90
19941;DHT22;10132;50.864;5.176;2022-10-19T00:49:39;10.40;99.90
19941;DHT22;10132;50.864;5.176;2022-10-19T00:51:44;10.40;99.90
19941;DHT22;10132;50.864;5.176;2022-10-19T00:53:47;10.50;99.90
19941;DHT22;10132;50.864;5.176;2022-10-19T00:55:50;10.40;99.90
19941;DHT22;10132;50.864;5.176;2022-10-19T00:57:54;10.30;99.90
19941;DHT22;10132;50.864;5.176;2022-10-19T01:00:00;10.20;99.90
19941;DHT22;10132;50.864;5.176;2022-10-19T01:02:05;10.20;99.90
19941;DHT22;10132;50.864;5.176;2022-10-19T01:04:08;10.20;99.90
19941;DHT22;10132;50.864;5.176;2022-10-19T01:06:13;10.20;99.90
19941;DHT22;10132;50.864;5.176;2022-10-19T01:08:17;10.20;99.90
19941;DHT22;10132;50.864;5.176;2022-10-19T01:10:22;10.20;99.90
19941;DHT22;10132;50.864;5.176;2022-10-19T01:12:50;10.20;99.90
19941;DHT22;10132;50.864;5.176;2022-10-19T01:15:09;10.20;99.90
19941;DHT22;10132;50.864;5.176;2022-10-19T01:17:22;10.30;99.90
19941;DHT22;10132;50.864;5.176;2022-10-19T01:19:44;10.30;99.90
19941;DHT22;10132;50.864;5.176;2022-10-19T01:21:57;10.20;99.90
19941;DHT22;10132;50.864;5.176;2022-10-19T01:24:34;10.20;99.90
19941;DHT22;10132;50.864;5.176;2022-10-19T01:27:03;10.20;99.90
19941;DHT22;10132;50.864;5.176;2022-10-19T01:29:13;10.10;99.90
19941;DHT22;10132;50.864;5.176;2022-10-19T01:31:24;10.20;99.90
19941;DHT22;10132;50.864;5.176;2022-10-19T01:33:37;10.20;99.90
19941;DHT22;10132;50.864;5.176;2022-10-19T01:35:46;10.20;99.90
19941;DHT22;10132;50.864;5.176;2022-10-19T01:37:58;10.30;99.90
19941;DHT22;10132;50.864;5.176;2022-10-19T01:40:08;10.20;99.90
19941;DHT22;10132;50.864;5.176;2022-10-19T01:42:14;10.10;99.90
19941;DHT22;10132;50.864;5.176;2022-10-19T01:44:26;10.20;99.90
19941;DHT22;10132;50.864;5.176;2022-10-19T01:46:35;10.20;99.90
19941;DHT22;10132;50.864;5.176;2022-10-19T01:48:40;10.30;99.90
19941;DHT22;10132;50.864;5.176;2022-10-19T01:50:46;10.20;99.90
19941;DHT22;10132;50.864;5.176;2022-10-19T01:52:50;10.20;99.90
19941;DHT22;10132;50.864;5.176;2022-10-19T01:54:57;10.20;99.90
19941;DHT22;10132;50.864;5.176;2022-10-19T01:57:01;10.20;99.90
19941;DHT22;10132;50.864;5.176;2022-10-19T01:59:06;10.20;99.90
19941;DHT22;10132;50.864;5.176;2022-10-19T02:01:12;10.20;99.90
19941;DHT22;10132;50.864;5.176;2022-10-19T02:03:17;10.10;99.90
19941;DHT22;10132;50.864;5.176;2022-10-19T02:05:22;10.00;99.90
19941;DHT22;10132;50.864;5.176;2022-10-19T02:07:28;10.00;99.90
19941;DHT22;10132;50.864;5.176;2022-10-19T02:09:34;10.00;99.90
19941;DHT22;10132;50.864;5.176;2022-10-19T02:11:37;9.90;99.90
19941;DHT22;10132;50.864;5.176;2022-10-19T02:13:39;9.90;99.90
19941;DHT22;10132;50.864;5.176;2022-10-19T02:15:45;10.00;99.90
19941;DHT22;10132;50.864;5.176;2022-10-19T02:17:51;9.90;99.90
19941;DHT22;10132;50.864;5.176;2022-10-19T02:19:57;10.00;99.90
19941;DHT22;10132;50.864;5.176;2022-10-19T02:21:59;10.00;99.90
19941;DHT22;10132;50.864;5.176;2022-10-19T02:24:02;9.90;99.90
19941;DHT22;10132;50.864;5.176;2022-10-19T02:26:05;9.80;99.90
19941;DHT22;10132;50.864;5.176;2022-10-19T02:28:07;9.70;99.90
19941;DHT22;10132;50.864;5.176;2022-10-19T02:30:10;9.60;99.90
19941;DHT22;10132;50.864;5.176;2022-10-19T02:32:13;9.60;99.90
19941;DHT22;10132;50.864;5.176;2022-10-19T02:34:15;9.50;99.90
19941;DHT22;10132;50.864;5.176;2022-10-19T02:36:19;9.50;99.90
19941;DHT22;10132;50.864;5.176;2022-10-19T02:38:23;9.50;99.90
19941;DHT22;10132;50.864;5.176;2022-10-19T02:40:26;9.60;99.90
19941;DHT22;10132;50.864;5.176;2022-10-19T02:42:34;9.50;99.90
19941;DHT22;10132;50.864;5.176;2022-10-19T02:44:40;9.40;99.90
19941;DHT22;10132;50.864;5.176;2022-10-19T02:46:45;9.30;99.90
19941;DHT22;10132;50.864;5.176;2022-10-19T02:48:51;9.30;99.90
19941;DHT22;10132;50.864;5.176;2022-10-19T02:50:53;9.30;99.90
19941;DHT22;10132;50.864;5.176;2022-10-19T02:52:59;9.20;99.90
19941;DHT22;10132;50.864;5.176;2022-10-19T02:55:01;9.10;99.90
19941;DHT22;10132;50.864;5.176;2022-10-19T02:57:04;9.10;99.90
19941;DHT22;10132;50.864;5.176;2022-10-19T02:59:10;9.00;99.90
19941;DHT22;10132;50.864;5.176;2022-10-19T03:01:12;9.00;99.90
19941;DHT22;10132;50.864;5.176;2022-10-19T03:03:15;9.00;99.90
19941;DHT22;10132;50.864;5.176;2022-10-19T03:05:17;9.00;99.90
19941;DHT22;10132;50.864;5.176;2022-10-19T03:07:20;9.10;99.90
19941;DHT22;10132;50.864;5.176;2022-10-19T03:09:23;9.20;99.90
19941;DHT22;10132;50.864;5.176;2022-10-19T03:11:25;9.20;99.90
19941;DHT22;10132;50.864;5.176;2022-10-19T03:13:28;9.20;99.90
19941;DHT22;10132;50.864;5.176;2022-10-19T03:15:30;9.30;99.90
19941;DHT22;10132;50.864;5.176;2022-10-19T03:17:32;9.30;99.90
19941;DHT22;10132;50.864;5.176;2022-10-19T03:19:35;9.20;99.90
19941;DHT22;10132;50.864;5.176;2022-10-19T03:21:37;9.20;99.90
19941;DHT22;10132;50.864;5.176;2022-10-19T03:23:40;9.20;99.90
19941;DHT22;10132;50.864;5.176;2022-10-19T03:25:43;9.20;99.90
19941;DHT22;10132;50.864;5.176;2022-10-19T03:27:45;9.30;99.90
19941;DHT22;10132;50.864;5.176;2022-10-19T03:29:48;9.30;99.90
19941;DHT22;10132;50.864;5.176;2022-10-19T03:31:50;9.30;99.90
19941;DHT22;10132;50.864;5.176;2022-10-19T03:33:52;9.40;99.90
19941;DHT22;10132;50.864;5.176;2022-10-19T03:36:13;9.40;99.90
19941;DHT22;10132;50.864;5.176;2022-10-19T03:38:15;9.40;99.90
19941;DHT22;10132;50.864;5.176;2022-10-19T03:40:18;9.40;99.90
19941;DHT22;10132;50.864;5.176;2022-10-19T03:42:21;9.40;99.90
19941;DHT22;10132;50.864;5.176;2022-10-19T03:44:23;9.40;99.90
19941;DHT22;10132;50.864;5.176;2022-10-19T03:46:26;9.40;99.90
19941;DHT22;10132;50.864;5.176;2022-10-19T03:48:28;9.40;99.90
19941;DHT22;10132;50.864;5.176;2022-10-19T03:50:31;9.40;99.90
19941;DHT22;10132;50.864;5.176;2022-10-19T03:52:34;9.40;99.90
19941;DHT22;10132;50.864;5.176;2022-10-19T03:54:36;9.40;99.90
19941;DHT22;10132;50.864;5.176;2022-10-19T03:56:38;9.30;99.90
19941;DHT22;10132;50.864;5.176;2022-10-19T03:58:43;9.40;99.90
19941;DHT22;10132;50.864;5.176;2022-10-19T04:00:45;9.30;99.90
19941;DHT22;10132;50.864;5.176;2022-10-19T04:02:47;9.40;99.90
19941;DHT22;10132;50.864;5.176;2022-10-19T04:04:49;9.40;99.90
19941;DHT22;10132;50.864;5.176;2022-10-19T04:06:51;9.40;99.90
19941;DHT22;10132;50.864;5.176;2022-10-19T04:08:54;9.40;99.90
19941;DHT22;10132;50.864;5.176;2022-10-19T04:11:00;9.40;99.90
19941;DHT22;10132;50.864;5.176;2022-10-19T04:13:03;9.40;99.90
19941;DHT22;10132;50.864;5.176;2022-10-19T04:15:07;9.40;99.90
19941;DHT22;10132;50.864;5.176;2022-10-19T04:17:10;9.30;99.90
19941;DHT22;10132;50.864;5.176;2022-10-19T04:19:13;9.30;99.90
19941;DHT22;10132;50.864;5.176;2022-10-19T04:21:20;9.30;99.90
19941;DHT22;10132;50.864;5.176;2022-10-19T04:23:25;9.20;99.90
19941;DHT22;10132;50.864;5.176;2022-10-19T04:25:27;9.30;99.90
19941;DHT22;10132;50.864;5.176;2022-10-19T04:27:29;9.30;99.90
19941;DHT22;10132;50.864;5.176;2022-10-19T04:29:31;9.30;99.90
19941;DHT22;10132;50.864;5.176;2022-10-19T04:31:35;9.20;99.90
19941;DHT22;10132;50.864;5.176;2022-10-19T04:33:38;9.20;99.90
19941;DHT22;10132;50.864;5.176;2022-10-19T04:35:40;9.20;99.90
19941;DHT22;10132;50.864;5.176;2022-10-19T04:37:42;9.30;99.90
19941;DHT22;10132;50.864;5.176;2022-10-19T04:39:44;9.20;99.90
19941;DHT22;10132;50.864;5.176;2022-10-19T04:41:46;9.20;99.90
19941;DHT22;10132;50.864;5.176;2022-10-19T04:43:53;9.30;99.90
19941;DHT22;10132;50.864;5.176;2022-10-19T04:46:01;9.10;99.90
19941;DHT22;10132;50.864;5.176;2022-10-19T04:48:07;9.00;99.90
19941;DHT22;10132;50.864;5.176;2022-10-19T04:50:09;9.00;99.90
19941;DHT22;10132;50.864;5.176;2022-10-19T04:52:11;8.90;99.90
19941;DHT22;10132;50.864;5.176;2022-10-19T04:54:13;8.80;99.90
19941;DHT22;10132;50.864;5.176;2022-10-19T04:56:17;8.90;99.90
19941;DHT22;10132;50.864;5.176;2022-10-19T04:58:20;9.00;99.90
19941;DHT22;10132;50.864;5.176;2022-10-19T05:00:22;8.90;99.90
19941;DHT22;10132;50.864;5.176;2022-10-19T05:02:24;8.90;99.90
19941;DHT22;10132;50.864;5.176;2022-10-19T05:04:28;8.80;99.90
19941;DHT22;10132;50.864;5.176;2022-10-19T05:06:30;8.90;99.90
19941;DHT22;10132;50.864;5.176;2022-10-19T05:08:33;8.90;99.90
19941;DHT22;10132;50.864;5.176;2022-10-19T05:10:35;9.00;99.90
19941;DHT22;10132;50.864;5.176;2022-10-19T05:12:38;9.00;99.90
19941;DHT22;10132;50.864;5.176;2022-10-19T05:14:40;9.00;99.90
19941;DHT22;10132;50.864;5.176;2022-10-19T05:16:42;9.00;99.90
19941;DHT22;10132;50.864;5.176;2022-10-19T05:18:46;9.10;99.90
19941;DHT22;10132;50.864;5.176;2022-10-19T05:20:51;9.10;99.90
19941;DHT22;10132;50.864;5.176;2022-10-19T05:22:53;9.00;99.90
19941;DHT22;10132;50.864;5.176;2022-10-19T05:24:56;8.90;99.90
19941;DHT22;10132;50.864;5.176;2022-10-19T05:26:58;8.80;99.90
19941;DHT22;10132;50.864;5.176;2022-10-19T05:29:00;8.80;99.90
19941;DHT22;10132;50.864;5.176;2022-10-19T05:31:05;8.80;99.90
19941;DHT22;10132;50.864;5.176;2022-10-19T05:33:08;8.80;99.90
19941;DHT22;10132;50.864;5.176;2022-10-19T05:35:10;8.80;99.90
19941;DHT22;10132;50.864;5.176;2022-10-19T05:37:15;8.70;99.90
19941;DHT22;10132;50.864;5.176;2022-10-19T05:39:17;8.80;99.90
19941;DHT22;10132;50.864;5.176;2022-10-19T05:41:20;8.90;99.90
19941;DHT22;10132;50.864;5.176;2022-10-19T05:43:23;8.90;99.90
19941;DHT22;10132;50.864;5.176;2022-10-19T05:45:25;8.90;99.90
19941;DHT22;10132;50.864;5.176;2022-10-19T05:47:27;8.80;99.90
19941;DHT22;10132;50.864;5.176;2022-10-19T05:49:29;8.70;99.90
19941;DHT22;10132;50.864;5.176;2022-10-19T05:51:32;8.70;99.90
19941;DHT22;10132;50.864;5.176;2022-10-19T05:53:36;8.80;99.90
19941;DHT22;10132;50.864;5.176;2022-10-19T05:55:39;8.70;99.90
19941;DHT22;10132;50.864;5.176;2022-10-19T05:57:41;8.70;99.90
19941;DHT22;10132;50.864;5.176;2022-10-19T05:59:43;8.70;99.90
19941;DHT22;10132;50.864;5.176;2022-10-19T06:01:46;8.70;99.90
19941;DHT22;10132;50.864;5.176;2022-10-19T06:03:51;8.60;99.90
19941;DHT22;10132;50.864;5.176;2022-10-19T06:05:54;8.50;99.90
19941;DHT22;10132;50.864;5.176;2022-10-19T06:07:56;8.40;99.90
19941;DHT22;10132;50.864;5.176;2022-10-19T06:10:02;8.40;99.90
19941;DHT22;10132;50.864;5.176;2022-10-19T06:12:04;8.40;99.90
19941;DHT22;10132;50.864;5.176;2022-10-19T06:14:09;8.40;99.90
19941;DHT22;10132;50.864;5.176;2022-10-19T06:16:13;8.30;99.90
19941;DHT22;10132;50.864;5.176;2022-10-19T06:18:15;8.50;99.90
19941;DHT22;10132;50.864;5.176;2022-10-19T06:20:19;8.50;99.90
19941;DHT22;10132;50.864;5.176;2022-10-19T06:22:21;8.50;99.90
19941;DHT22;10132;50.864;5.176;2022-10-19T06:24:23;8.50;99.90
19941;DHT22;10132;50.864;5.176;2022-10-19T06:26:27;8.60;99.90
19941;DHT22;10132;50.864;5.176;2022-10-19T06:28:30;8.60;99.90
19941;DHT22;10132;50.864;5.176;2022-10-19T06:30:32;8.70;99.90
19941;DHT22;10132;50.864;5.176;2022-10-19T06:32:34;8.80;99.90
19941;DHT22;10132;50.864;5.176;2022-10-19T06:34:36;8.80;99.90
19941;DHT22;10132;50.864;5.176;2022-10-19T06:36:38;8.70;99.90
19941;DHT22;10132;50.864;5.176;2022-10-19T06:38:41;8.70;99.90
19941;DHT22;10132;50.864;5.176;2022-10-19T06:40:43;8.70;99.90
19941;DHT22;10132;50.864;5.176;2022-10-19T06:42:47;8.80;99.90
19941;DHT22;10132;50.864;5.176;2022-10-19T06:44:49;9.00;99.90
19941;DHT22;10132;50.864;5.176;2022-10-19T06:46:51;9.10;99.90
19941;DHT22;10132;50.864;5.176;2022-10-19T06:48:55;9.20;99.90
19941;DHT22;10132;50.864;5.176;2022-10-19T06:50:58;9.40;99.90
19941;DHT22;10132;50.864;5.176;2022-10-19T06:53:01;9.40;99.90
19941;DHT22;10132;50.864;5.176;2022-10-19T06:55:04;9.50;99.90
19941;DHT22;10132;50.864;5.176;2022-10-19T06:57:06;9.60;99.90
19941;DHT22;10132;50.864;5.176;2022-10-19T06:59:10;9.60;99.90
19941;DHT22;10132;50.864;5.176;2022-10-19T07:01:14;9.60;99.90
19941;DHT22;10132;50.864;5.176;2022-10-19T07:03:16;9.70;99.90
19941;DHT22;10132;50.864;5.176;2022-10-19T07:05:18;9.70;99.90
19941;DHT22;10132;50.864;5.176;2022-10-19T07:07:20;9.80;99.90
19941;DHT22;10132;50.864;5.176;2022-10-19T07:09:22;10.00;99.90
19941;DHT22;10132;50.864;5.176;2022-10-19T07:11:24;10.20;99.90
19941;DHT22;10132;50.864;5.176;2022-10-19T07:13:28;10.40;99.90
19941;DHT22;10132;50.864;5.176;2022-10-19T07:15:32;10.50;99.90
19941;DHT22;10132;50.864;5.176;2022-10-19T07:17:34;10.50;99.90
19941;DHT22;10132;50.864;5.176;2022-10-19T07:19:36;10.50;99.90
19941;DHT22;10132;50.864;5.176;2022-10-19T07:21:39;10.60;99.90
19941;DHT22;10132;50.864;5.176;2022-10-19T07:23:44;10.80;99.90
19941;DHT22;10132;50.864;5.176;2022-10-19T07:25:46;10.80;99.90
19941;DHT22;10132;50.864;5.176;2022-10-19T07:27:49;10.90;99.90
19941;DHT22;10132;50.864;5.176;2022-10-19T07:29:51;10.90;99.90
19941;DHT22;10132;50.864;5.176;2022-10-19T07:31:55;11.10;99.90
19941;DHT22;10132;50.864;5.176;2022-10-19T07:33:58;11.30;99.90
19941;DHT22;10132;50.864;5.176;2022-10-19T07:36:01;11.40;99.90
19941;DHT22;10132;50.864;5.176;2022-10-19T07:38:04;11.40;99.90
19941;DHT22;10132;50.864;5.176;2022-10-19T07:40:07;11.50;99.90
19941;DHT22;10132;50.864;5.176;2022-10-19T07:42:10;11.60;99.90
19941;DHT22;10132;50.864;5.176;2022-10-19T07:44:14;11.80;99.90
19941;DHT22;10132;50.864;5.176;2022-10-19T07:46:18;11.90;99.90
19941;DHT22;10132;50.864;5.176;2022-10-19T07:48:22;12.00;99.90
19941;DHT22;10132;50.864;5.176;2022-10-19T07:50:25;12.00;99.90
19941;DHT22;10132;50.864;5.176;2022-10-19T07:52:28;12.00;99.90
19941;DHT22;10132;50.864;5.176;2022-10-19T07:54:30;12.10;99.90
19941;DHT22;10132;50.864;5.176;2022-10-19T07:56:33;12.30;99.90
19941;DHT22;10132;50.864;5.176;2022-10-19T07:58:36;12.40;99.90
19941;DHT22;10132;50.864;5.176;2022-10-19T08:00:38;12.70;99.90
19941;DHT22;10132;50.864;5.176;2022-10-19T08:02:40;13.00;99.90
19941;DHT22;10132;50.864;5.176;2022-10-19T08:04:44;13.00;99.90
19941;DHT22;10132;50.864;5.176;2022-10-19T08:06:46;13.30;99.90
19941;DHT22;10132;50.864;5.176;2022-10-19T08:08:48;13.50;99.90
19941;DHT22;10132;50.864;5.176;2022-10-19T08:10:51;13.70;99.90
19941;DHT22;10132;50.864;5.176;2022-10-19T08:12:53;13.70;99.90
19941;DHT22;10132;50.864;5.176;2022-10-19T08:14:56;13.70;99.90
19941;DHT22;10132;50.864;5.176;2022-10-19T08:16:58;13.60;99.90
19941;DHT22;10132;50.864;5.176;2022-10-19T08:19:01;13.70;99.90
19941;DHT22;10132;50.864;5.176;2022-10-19T08:21:05;13.50;99.90
19941;DHT22;10132;50.864;5.176;2022-10-19T08:23:07;13.60;99.90
19941;DHT22;10132;50.864;5.176;2022-10-19T08:25:10;14.00;99.90
19941;DHT22;10132;50.864;5.176;2022-10-19T08:27:15;14.10;99.90
19941;DHT22;10132;50.864;5.176;2022-10-19T08:29:18;14.30;99.90
19941;DHT22;10132;50.864;5.176;2022-10-19T08:31:22;14.40;99.90
19941;DHT22;10132;50.864;5.176;2022-10-19T08:33:25;14.30;99.90
19941;DHT22;10132;50.864;5.176;2022-10-19T08:35:28;14.50;99.90
19941;DHT22;10132;50.864;5.176;2022-10-19T08:37:32;14.60;99.90
19941;DHT22;10132;50.864;5.176;2022-10-19T08:39:35;14.60;99.90
19941;DHT22;10132;50.864;5.176;2022-10-19T08:41:50;14.60;99.90
19941;DHT22;10132;50.864;5.176;2022-10-19T08:44:22;14.80;99.90
19941;DHT22;10132;50.864;5.176;2022-10-19T08:46:34;14.80;99.90
19941;DHT22;10132;50.864;5.176;2022-10-19T08:48:43;14.90;99.90
19941;DHT22;10132;50.864;5.176;2022-10-19T08:50:48;15.00;99.90
19941;DHT22;10132;50.864;5.176;2022-10-19T08:52:56;14.70;99.90
19941;DHT22;10132;50.864;5.176;2022-10-19T08:55:03;15.00;99.90
19941;DHT22;10132;50.864;5.176;2022-10-19T08:57:12;15.30;99.90
19941;DHT22;10132;50.864;5.176;2022-10-19T08:59:25;15.30;99.90
19941;DHT22;10132;50.864;5.176;2022-10-19T09:01:36;15.40;99.90
19941;DHT22;10132;50.864;5.176;2022-10-19T09:03:45;15.40;99.90
19941;DHT22;10132;50.864;5.176;2022-10-19T09:05:52;15.10;99.90
19941;DHT22;10132;50.864;5.176;2022-10-19T09:07:59;15.10;99.90
19941;DHT22;10132;50.864;5.176;2022-10-19T09:10:09;15.20;99.90
19941;DHT22;10132;50.864;5.176;2022-10-19T09:12:18;15.40;99.90
19941;DHT22;10132;50.864;5.176;2022-10-19T09:14:26;15.60;99.90
19941;DHT22;10132;50.864;5.176;2022-10-19T09:16:31;15.90;99.90
19941;DHT22;10132;50.864;5.176;2022-10-19T09:18:34;16.10;99.90
19941;DHT22;10132;50.864;5.176;2022-10-19T09:20:38;16.20;99.90
19941;DHT22;10132;50.864;5.176;2022-10-19T09:22:42;16.20;99.90
19941;DHT22;10132;50.864;5.176;2022-10-19T09:24:49;16.40;99.90
19941;DHT22;10132;50.864;5.176;2022-10-19T09:26:54;16.40;99.90
19941;DHT22;10132;50.864;5.176;2022-10-19T09:28:59;16.50;99.90
19941;DHT22;10132;50.864;5.176;2022-10-19T09:31:03;16.70;99.90
19941;DHT22;10132;50.864;5.176;2022-10-19T09:33:13;16.70;99.90
19941;DHT22;10132;50.864;5.176;2022-10-19T09:35:23;16.60;99.90
19941;DHT22;10132;50.864;5.176;2022-10-19T09:37:27;16.70;99.90
19941;DHT22;10132;50.864;5.176;2022-10-19T09:39:30;16.80;99.90
19941;DHT22;10132;50.864;5.176;2022-10-19T09:41:34;17.00;99.90
19941;DHT22;10132;50.864;5.176;2022-10-19T09:43:36;17.10;99.90
19941;DHT22;10132;50.864;5.176;2022-10-19T09:45:43;17.40;99.90
19941;DHT22;10132;50.864;5.176;2022-10-19T09:47:48;17.50;99.90
19941;DHT22;10132;50.864;5.176;2022-10-19T09:50:05;17.40;99.90
19941;DHT22;10132;50.864;5.176;2022-10-19T09:52:23;17.50;99.90
19941;DHT22;10132;50.864;5.176;2022-10-19T09:54:32;17.50;99.90
19941;DHT22;10132;50.864;5.176;2022-10-19T09:56:36;17.70;99.90
19941;DHT22;10132;50.864;5.176;2022-10-19T09:58:47;17.90;99.90
19941;DHT22;10132;50.864;5.176;2022-10-19T10:00:50;17.80;99.90
19941;DHT22;10132;50.864;5.176;2022-10-19T10:02:55;18.10;99.90
19941;DHT22;10132;50.864;5.176;2022-10-19T10:05:04;18.10;99.90
19941;DHT22;10132;50.864;5.176;2022-10-19T10:07:14;18.00;99.90
19941;DHT22;10132;50.864;5.176;2022-10-19T10:09:18;18.00;99.90
19941;DHT22;10132;50.864;5.176;2022-10-19T10:11:23;18.00;99.90
19941;DHT22;10132;50.864;5.176;2022-10-19T10:13:28;18.20;99.90
19941;DHT22;10132;50.864;5.176;2022-10-19T10:15:40;18.20;99.90
19941;DHT22;10132;50.864;5.176;2022-10-19T10:17:44;18.10;99.90
19941;DHT22;10132;50.864;5.176;2022-10-19T10:20:03;18.10;99.90
19941;DHT22;10132;50.864;5.176;2022-10-19T10:22:23;18.20;99.90
19941;DHT22;10132;50.864;5.176;2022-10-19T10:24:28;18.10;99.90
19941;DHT22;10132;50.864;5.176;2022-10-19T10:26:30;18.20;99.90
19941;DHT22;10132;50.864;5.176;2022-10-19T10:28:45;18.50;99.90
19941;DHT22;10132;50.864;5.176;2022-10-19T10:30:53;18.40;99.90
19941;DHT22;10132;50.864;5.176;2022-10-19T10:32:57;18.30;99.90
19941;DHT22;10132;50.864;5.176;2022-10-19T10:35:01;18.50;99.90
19941;DHT22;10132;50.864;5.176;2022-10-19T10:37:05;18.80;99.90
19941;DHT22;10132;50.864;5.176;2022-10-19T10:39:13;19.10;99.90
19941;DHT22;10132;50.864;5.176;2022-10-19T10:41:18;19.00;99.90
19941;DHT22;10132;50.864;5.176;2022-10-19T10:43:28;19.00;99.90
19941;DHT22;10132;50.864;5.176;2022-10-19T10:45:36;19.00;99.90
19941;DHT22;10132;50.864;5.176;2022-10-19T10:47:42;19.30;99.90
19941;DHT22;10132;50.864;5.176;2022-10-19T10:49:53;19.30;99.90
19941;DHT22;10132;50.864;5.176;2022-10-19T10:52:00;19.20;99.90
19941;DHT22;10132;50.864;5.176;2022-10-19T10:54:18;19.20;99.90
19941;DHT22;10132;50.864;5.176;2022-10-19T10:56:23;19.20;99.90
19941;DHT22;10132;50.864;5.176;2022-10-19T10:58:36;19.20;99.90
19941;DHT22;10132;50.864;5.176;2022-10-19T11:00:43;19.20;99.90
19941;DHT22;10132;50.864;5.176;2022-10-19T11:02:50;19.10;99.90
19941;DHT22;10132;50.864;5.176;2022-10-19T11:04:56;19.20;99.90
19941;DHT22;10132;50.864;5.176;2022-10-19T11:07:06;19.10;99.90
19941;DHT22;10132;50.864;5.176;2022-10-19T11:09:17;19.10;99.90
19941;DHT22;10132;50.864;5.176;2022-10-19T11:11:27;19.20;99.90
19941;DHT22;10132;50.864;5.176;2022-10-19T11:13:34;19.20;99.90
19941;DHT22;10132;50.864;5.176;2022-10-19T11:15:46;19.60;99.90
19941;DHT22;10132;50.864;5.176;2022-10-19T11:18:01;19.70;99.90
19941;DHT22;10132;50.864;5.176;2022-10-19T11:20:06;19.70;99.90
19941;DHT22;10132;50.864;5.176;2022-10-19T11:22:19;19.80;99.90
19941;DHT22;10132;50.864;5.176;2022-10-19T11:24:33;19.60;99.90
19941;DHT22;10132;50.864;5.176;2022-10-19T11:26:55;19.70;99.90
19941;DHT22;10132;50.864;5.176;2022-10-19T11:29:12;19.70;99.90
19941;DHT22;10132;50.864;5.176;2022-10-19T11:31:27;19.50;99.90
19941;DHT22;10132;50.864;5.176;2022-10-19T11:33:46;19.40;99.90
19941;DHT22;10132;50.864;5.176;2022-10-19T11:35:51;19.50;99.90
19941;DHT22;10132;50.864;5.176;2022-10-19T11:38:01;19.60;99.90
19941;DHT22;10132;50.864;5.176;2022-10-19T11:40:12;19.80;99.90
19941;DHT22;10132;50.864;5.176;2022-10-19T11:42:27;19.90;99.90
19941;DHT22;10132;50.864;5.176;2022-10-19T11:44:41;20.00;99.90
19941;DHT22;10132;50.864;5.176;2022-10-19T11:46:53;20.10;99.90
19941;DHT22;10132;50.864;5.176;2022-10-19T11:49:18;20.00;99.90
19941;DHT22;10132;50.864;5.176;2022-10-19T11:51:28;20.00;99.90
19941;DHT22;10132;50.864;5.176;2022-10-19T11:53:40;19.90;99.90
19941;DHT22;10132;50.864;5.176;2022-10-19T11:55:54;20.10;99.90
19941;DHT22;10132;50.864;5.176;2022-10-19T11:58:06;20.30;99.90
19941;DHT22;10132;50.864;5.176;2022-10-19T12:00:11;20.20;99.90
19941;DHT22;10132;50.864;5.176;2022-10-19T12:02:32;20.20;99.90
19941;DHT22;10132;50.864;5.176;2022-10-19T12:04:45;20.40;99.90
19941;DHT22;10132;50.864;5.176;2022-10-19T12:07:00;20.20;99.90
19941;DHT22;10132;50.864;5.176;2022-10-19T12:09:16;20.00;99.90
19941;DHT22;10132;50.864;5.176;2022-10-19T12:11:40;20.00;99.90
19941;DHT22;10132;50.864;5.176;2022-10-19T12:13:50;19.90;99.90
19941;DHT22;10132;50.864;5.176;2022-10-19T12:15:54;19.90;99.90
19941;DHT22;10132;50.864;5.176;2022-10-19T12:18:02;19.80;99.90
19941;DHT22;10132;50.864;5.176;2022-10-19T12:20:12;19.80;99.90
19941;DHT22;10132;50.864;5.176;2022-10-19T12:22:20;19.60;99.90
19941;DHT22;10132;50.864;5.176;2022-10-19T12:24:24;19.40;99.90
19941;DHT22;10132;50.864;5.176;2022-10-19T12:26:30;19.50;99.90
19941;DHT22;10132;50.864;5.176;2022-10-19T12:28:36;19.60;99.90
19941;DHT22;10132;50.864;5.176;2022-10-19T12:30:38;19.80;99.90
19941;DHT22;10132;50.864;5.176;2022-10-19T12:32:48;20.00;99.90
19941;DHT22;10132;50.864;5.176;2022-10-19T12:34:56;20.10;99.90
19941;DHT22;10132;50.864;5.176;2022-10-19T12:37:07;20.00;99.90
19941;DHT22;10132;50.864;5.176;2022-10-19T12:39:18;20.10;99.90
19941;DHT22;10132;50.864;5.176;2022-10-19T12:41:25;20.20;99.90
19941;DHT22;10132;50.864;5.176;2022-10-19T12:43:34;20.20;99.90
19941;DHT22;10132;50.864;5.176;2022-10-19T12:45:44;20.10;99.90
19941;DHT22;10132;50.864;5.176;2022-10-19T12:48:21;20.00;99.90
19941;DHT22;10132;50.864;5.176;2022-10-19T12:53:01;20.00;99.90
19941;DHT22;10132;50.864;5.176;2022-10-19T12:55:24;19.80;99.90
19941;DHT22;10132;50.864;5.176;2022-10-19T12:57:28;19.60;99.90
19941;DHT22;10132;50.864;5.176;2022-10-19T12:59:33;19.60;99.90
19941;DHT22;10132;50.864;5.176;2022-10-19T13:01:41;19.70;99.90
19941;DHT22;10132;50.864;5.176;2022-10-19T13:03:45;19.90;99.90
19941;DHT22;10132;50.864;5.176;2022-10-19T13:05:55;19.90;99.90
19941;DHT22;10132;50.864;5.176;2022-10-19T13:08:02;20.30;99.90
19941;DHT22;10132;50.864;5.176;2022-10-19T13:10:12;20.20;99.90
19941;DHT22;10132;50.864;5.176;2022-10-19T13:12:40;20.20;99.90
19941;DHT22;10132;50.864;5.176;2022-10-19T13:14:46;20.30;99.90
19941;DHT22;10132;50.864;5.176;2022-10-19T13:17:07;20.50;99.90
19941;DHT22;10132;50.864;5.176;2022-10-19T13:19:20;20.80;99.90
19941;DHT22;10132;50.864;5.176;2022-10-19T13:21:45;21.10;99.90
19941;DHT22;10132;50.864;5.176;2022-10-19T13:23:51;21.20;99.90